Aaronsburg, Pennsylvania
Current Conditions -  °F | °C
As of 3:53 PM on Saturday 22 Nov 2014 (Local Time) from KUNV Reporting Station
Light Rain Light Rain  
Wind Chill: 27°   Ceiling: 2400
Heat Index: 32°   Visibility: 7mi
Dew Point: 23°   Wind: 5mph
Humidity: 69%   Direction: 260°W
Pressure: 30.19"   Gusts: NA
Location:  40.9°N, 77.45°W
Report Text: KUNV 222053Z 26004KT 7SM -RA BKN024 OVC031 00/M05 A3019
Loading
Personal Weather Stations






























Interactive Weather Map New forecast layout! Learn more

10-Day Weather Forecast

Advertisements
Track Severe Weather on mobile